PWSweather.com
Personal Weather Stations
Station Observations
HAJERN
Hajeren, HvittingfossNO 3647

HajerenHvittingfossNO 3647

Lat: 59.54314324, Lon: 9.95778703

Elevation: 1320

Station Type: Fine Ofset WS 1080

www.hajern.no

High Low Average
Temperature 53.6°F12.0°C 25.5°F-3.6°C 38.0°F3.3°C
Dew Point 20.3°F-6.5°C -4.1°F-20.1°C 10.2°F-12.1°C
Winds 12.4 mph 20.0 kmh Calm Calm 5.0 mph SSW8.0 kmh SSW
Wind Gusts 19.0 mph30.6 kmh -- 8.0 mph12.9 kmh
Humidity 53% 10% 36%
Pressure 29.89 in1012.2 mb 29.80 in1009.1 mb -
Precipitation 0.00 in0.0 mm - -
Hour Temp Dew Point Humidity Winds Wind Gusts Pressure Precip Precip Rate Daily Precip Total
12:00 AM 29.8°F-1.2°C 11.6°F-11.3°C 46% 8.0 mph NW12.9 kmh NW 9.8 mph15.8 kmh 29.79 in1008.8 mb 0.00 in0.0 mm 0.00 in0.0 mm 0.00 in0.0 mm
12:15 AM 29.8°F-1.2°C 11.1°F-11.6°C 45% 7.9 mph NW12.7 kmh NW 10.7 mph17.2 kmh 29.79 in1008.8 mb 0.00 in0.0 mm 0.00 in0.0 mm 0.00 in0.0 mm
12:30 AM 29.8°F-1.2°C 11.1°F-11.6°C 45% 7.3 mph NW11.7 kmh NW 11.4 mph18.3 kmh 29.80 in1009.1 mb 0.00 in0.0 mm 0.00 in0.0 mm 0.00 in0.0 mm
12:45 AM 29.7°F-1.3°C 11.5°F-11.4°C 46% 7.0 mph NW11.3 kmh NW 11.4 mph18.3 kmh 29.80 in1009.1 mb 0.00 in0.0 mm 0.00 in0.0 mm 0.00 in0.0 mm
01:00 AM 29.8°F-1.2°C 10.6°F-11.9°C 44% 7.7 mph NW12.4 kmh NW 10.7 mph17.2 kmh 29.81 in1009.5 mb 0.00 in0.0 mm 0.00 in0.0 mm 0.00 in0.0 mm
01:15 AM 29.7°F-1.3°C 11.0°F-11.7°C 45% 8.0 mph NNW12.9 kmh NNW 10.7 mph17.2 kmh 29.80 in1009.1 mb 0.00 in0.0 mm 0.00 in0.0 mm 0.00 in0.0 mm
01:30 AM 29.1°F-1.6°C 10.5°F-11.9°C 45% 7.0 mph NW11.3 kmh NW 9.2 mph14.8 kmh 29.81 in1009.5 mb 0.00 in0.0 mm 0.00 in0.0 mm 0.00 in0.0 mm
01:45 AM 29.1°F-1.6°C 10.5°F-11.9°C 45% 8.0 mph WNW12.9 kmh WNW 11.4 mph18.3 kmh 29.81 in1009.5 mb 0.00 in0.0 mm 0.00 in0.0 mm 0.00 in0.0 mm
02:00 AM 29.3°F-1.5°C 10.6°F-11.9°C 45% 9.8 mph NW15.8 kmh NW 14.5 mph23.3 kmh 29.82 in1009.8 mb 0.00 in0.0 mm 0.00 in0.0 mm 0.00 in0.0 mm
02:15 AM 29.1°F-1.6°C 10.5°F-11.9°C 45% 7.8 mph NW12.6 kmh NW 11.4 mph18.3 kmh 29.82 in1009.8 mb 0.00 in0.0 mm 0.00 in0.0 mm 0.00 in0.0 mm
02:30 AM 29.1°F-1.6°C 10.5°F-11.9°C 45% 8.0 mph WNW12.9 kmh WNW 13.0 mph20.9 kmh 29.83 in1010.2 mb 0.00 in0.0 mm 0.00 in0.0 mm 0.00 in0.0 mm
02:45 AM 28.8°F-1.8°C 10.6°F-11.9°C 46% 5.3 mph NW8.5 kmh NW 6.9 mph11.1 kmh 29.83 in1010.2 mb 0.00 in0.0 mm 0.00 in0.0 mm 0.00 in0.0 mm
03:00 AM 28.4°F-2.0°C 10.3°F-12.1°C 46% 4.4 mph W7.1 kmh W 6.9 mph11.1 kmh 29.83 in1010.2 mb 0.00 in0.0 mm 0.00 in0.0 mm 0.00 in0.0 mm
03:15 AM 28.4°F-2.0°C 9.8°F-12.3°C 45% 4.0 mph WNW6.4 kmh WNW 5.4 mph8.7 kmh 29.83 in1010.2 mb 0.00 in0.0 mm 0.00 in0.0 mm 0.00 in0.0 mm
03:30 AM 27.5°F-2.5°C 10.0°F-12.2°C 47% 2.7 mph NNE4.3 kmh NNE 3.8 mph6.1 kmh 29.84 in1010.5 mb 0.00 in0.0 mm 0.00 in0.0 mm 0.00 in0.0 mm
03:45 AM 26.8°F-2.9°C 10.2°F-12.1°C 49% 1.7 mph NE2.7 kmh NE 3.1 mph5.0 kmh 29.84 in1010.5 mb 0.00 in0.0 mm 0.00 in0.0 mm 0.00 in0.0 mm
04:00 AM 27.7°F-2.4°C 10.1°F-12.2°C 47% 3.2 mph NE5.1 kmh NE 4.5 mph7.2 kmh 29.84 in1010.5 mb 0.00 in0.0 mm 0.00 in0.0 mm 0.00 in0.0 mm
04:15 AM 27.5°F-2.5°C 10.0°F-12.2°C 47% 2.3 mph ENE3.7 kmh ENE 3.8 mph6.1 kmh 29.84 in1010.5 mb 0.00 in0.0 mm 0.00 in0.0 mm 0.00 in0.0 mm
04:30 AM 27.0°F-2.8°C 10.4°F-12.0°C 49% 2.2 mph WSW3.5 kmh WSW 5.4 mph8.7 kmh 29.84 in1010.5 mb 0.00 in0.0 mm 0.00 in0.0 mm 0.00 in0.0 mm
04:45 AM 26.2°F-3.2°C 9.7°F-12.4°C 49% 1.1 mph E1.8 kmh E 2.2 mph3.5 kmh 29.84 in1010.5 mb 0.00 in0.0 mm 0.00 in0.0 mm 0.00 in0.0 mm
05:00 AM 25.9°F-3.4°C 9.8°F-12.3°C 50% 1.5 mph ENE2.4 kmh ENE 3.1 mph5.0 kmh 29.84 in1010.5 mb 0.00 in0.0 mm 0.00 in0.0 mm 0.00 in0.0 mm
05:15 AM 26.1°F-3.3°C 10.0°F-12.2°C 50% 1.3 mph NE2.1 kmh NE 2.2 mph3.5 kmh 29.84 in1010.5 mb 0.00 in0.0 mm 0.00 in0.0 mm 0.00 in0.0 mm
05:30 AM 25.7°F-3.5°C 10.6°F-11.9°C 52% 1.2 mph N1.9 kmh N 2.2 mph3.5 kmh 29.85 in1010.8 mb 0.00 in0.0 mm 0.00 in0.0 mm 0.00 in0.0 mm
05:45 AM 26.2°F-3.2°C 10.2°F-12.1°C 50% 2.8 mph NNE4.5 kmh NNE 3.8 mph6.1 kmh 29.85 in1010.8 mb 0.00 in0.0 mm 0.00 in0.0 mm 0.00 in0.0 mm
06:00 AM 25.5°F-3.6°C 10.8°F-11.8°C 53% 2.5 mph NE4.0 kmh NE 3.8 mph6.1 kmh 29.85 in1010.8 mb 0.00 in0.0 mm 0.00 in0.0 mm 0.00 in0.0 mm
06:15 AM 25.5°F-3.6°C 10.4°F-12.0°C 52% 2.9 mph NE4.7 kmh NE 3.8 mph6.1 kmh 29.86 in1011.2 mb 0.00 in0.0 mm 0.00 in0.0 mm 0.00 in0.0 mm
06:30 AM 25.9°F-3.4°C 10.7°F-11.8°C 52% 2.1 mph NE3.4 kmh NE 3.1 mph5.0 kmh 29.87 in1011.5 mb 0.00 in0.0 mm 0.00 in0.0 mm 0.00 in0.0 mm
06:45 AM 26.4°F-3.1°C 11.2°F-11.6°C 52% 2.1 mph N3.4 kmh N 3.1 mph5.0 kmh 29.87 in1011.5 mb 0.00 in0.0 mm 0.00 in0.0 mm 0.00 in0.0 mm
07:00 AM 26.8°F-2.9°C 11.6°F-11.3°C 52% 3.1 mph NE5.0 kmh NE 3.8 mph6.1 kmh 29.88 in1011.9 mb 0.00 in0.0 mm 0.00 in0.0 mm 0.00 in0.0 mm
07:15 AM 27.1°F-2.7°C 11.9°F-11.2°C 52% 3.9 mph N6.3 kmh N 6.0 mph9.7 kmh 29.87 in1011.5 mb 0.00 in0.0 mm 0.00 in0.0 mm 0.00 in0.0 mm
07:30 AM 28.0°F-2.2°C 11.4°F-11.4°C 49% 3.5 mph NNW5.6 kmh NNW 4.5 mph7.2 kmh 29.87 in1011.5 mb 0.00 in0.0 mm 0.00 in0.0 mm 0.00 in0.0 mm
07:45 AM 28.9°F-1.7°C 11.8°F-11.2°C 48% 3.6 mph N5.8 kmh N 5.4 mph8.7 kmh 29.87 in1011.5 mb 0.00 in0.0 mm 0.00 in0.0 mm 0.00 in0.0 mm
08:00 AM 29.8°F-1.2°C 12.1°F-11.1°C 47% 3.8 mph N6.1 kmh N 4.5 mph7.2 kmh 29.88 in1011.9 mb 0.00 in0.0 mm 0.00 in0.0 mm 0.00 in0.0 mm
08:15 AM 31.1°F-0.5°C 12.3°F-10.9°C 45% 4.6 mph N7.4 kmh N 8.3 mph13.4 kmh 29.88 in1011.9 mb 0.00 in0.0 mm 0.00 in0.0 mm 0.00 in0.0 mm
08:30 AM 33.4°F0.8°C 11.7°F-11.3°C 40% 6.6 mph NW10.6 kmh NW 7.6 mph12.2 kmh 29.87 in1011.5 mb 0.00 in0.0 mm 0.00 in0.0 mm 0.00 in0.0 mm
08:45 AM 36.1°F2.3°C 9.8°F-12.3°C 33% 7.8 mph NW12.6 kmh NW 10.7 mph17.2 kmh 29.88 in1011.9 mb 0.00 in0.0 mm 0.00 in0.0 mm 0.00 in0.0 mm
09:00 AM 36.7°F2.6°C 10.3°F-12.1°C 33% 8.7 mph NNW14.0 kmh NNW 11.4 mph18.3 kmh 29.87 in1011.5 mb 0.00 in0.0 mm 0.00 in0.0 mm 0.00 in0.0 mm
09:15 AM 38.3°F3.5°C 10.3°F-12.1°C 31% 6.8 mph NW10.9 kmh NW 9.2 mph14.8 kmh 29.88 in1011.9 mb 0.00 in0.0 mm 0.00 in0.0 mm 0.00 in0.0 mm
09:30 AM 40.3°F4.6°C 9.8°F-12.3°C 28% 5.3 mph NW8.5 kmh NW 9.8 mph15.8 kmh 29.88 in1011.9 mb 0.00 in0.0 mm 0.00 in0.0 mm 0.00 in0.0 mm
09:45 AM 42.3°F5.7°C 8.1°F-13.3°C 24% 3.7 mph NW6.0 kmh NW 5.4 mph8.7 kmh 29.88 in1011.9 mb 0.00 in0.0 mm 0.00 in0.0 mm 0.00 in0.0 mm
10:00 AM 42.4°F5.8°C 8.2°F-13.2°C 24% 3.8 mph NNW6.1 kmh NNW 5.4 mph8.7 kmh 29.88 in1011.9 mb 0.00 in0.0 mm 0.00 in0.0 mm 0.00 in0.0 mm
10:15 AM 42.8°F6.0°C 7.6°F-13.6°C 23% 4.1 mph NNW6.6 kmh NNW 6.0 mph9.7 kmh 29.88 in1011.9 mb 0.00 in0.0 mm 0.00 in0.0 mm 0.00 in0.0 mm
10:30 AM 44.8°F7.1°C 7.3°F-13.7°C 21% 3.0 mph NW4.8 kmh NW 4.5 mph7.2 kmh 29.88 in1011.9 mb 0.00 in0.0 mm 0.00 in0.0 mm 0.00 in0.0 mm
10:45 AM 46.2°F7.9°C 7.4°F-13.7°C 20% 3.4 mph NNW5.5 kmh NNW 5.4 mph8.7 kmh 29.89 in1012.2 mb 0.00 in0.0 mm 0.00 in0.0 mm 0.00 in0.0 mm
11:00 AM 51.8°F11.0°C 7.1°F-13.8°C 16% 2.4 mph E3.9 kmh E 6.0 mph9.7 kmh 29.89 in1012.2 mb 0.00 in0.0 mm 0.00 in0.0 mm 0.00 in0.0 mm
11:15 AM 51.1°F10.6°C 5.1°F-14.9°C 15% 4.6 mph SSW7.4 kmh SSW 7.6 mph12.2 kmh 29.89 in1012.2 mb 0.00 in0.0 mm 0.00 in0.0 mm 0.00 in0.0 mm
11:30 AM 49.6°F9.8°C 3.9°F-15.6°C 15% 7.4 mph S11.9 kmh S 9.2 mph14.8 kmh 29.89 in1012.2 mb 0.00 in0.0 mm 0.00 in0.0 mm 0.00 in0.0 mm
11:45 AM 51.6°F10.9°C 2.4°F-16.4°C 13% 5.8 mph SSW9.3 kmh SSW 7.6 mph12.2 kmh 29.89 in1012.2 mb 0.00 in0.0 mm 0.00 in0.0 mm 0.00 in0.0 mm
12:00 PM 50.9°F10.5°C 3.4°F-15.9°C 14% 6.5 mph S10.5 kmh S 9.8 mph15.8 kmh 29.89 in1012.2 mb 0.00 in0.0 mm 0.00 in0.0 mm 0.00 in0.0 mm
12:15 PM 53.6°F12.0°C 4.0°F-15.6°C 13% 6.6 mph SSW10.6 kmh SSW 9.2 mph14.8 kmh 29.89 in1012.2 mb 0.00 in0.0 mm 0.00 in0.0 mm 0.00 in0.0 mm
12:30 PM 52.5°F11.4°C -2.4°F-19.1°C 10% 7.1 mph SW11.4 kmh SW 10.7 mph17.2 kmh 29.89 in1012.2 mb 0.00 in0.0 mm 0.00 in0.0 mm 0.00 in0.0 mm
12:45 PM 50.5°F10.3°C -4.0°F-20.0°C 10% 10.1 mph SW16.3 kmh SW 15.2 mph24.5 kmh 29.89 in1012.2 mb 0.00 in0.0 mm 0.00 in0.0 mm 0.00 in0.0 mm
01:00 PM 51.3°F10.7°C -3.4°F-19.7°C 10% 11.0 mph SSW17.7 kmh SSW 15.9 mph25.6 kmh 29.88 in1011.9 mb 0.00 in0.0 mm 0.00 in0.0 mm 0.00 in0.0 mm
01:15 PM 50.5°F10.3°C -4.0°F-20.0°C 10% 8.8 mph SSW14.2 kmh SSW 13.6 mph21.9 kmh 29.88 in1011.9 mb 0.00 in0.0 mm 0.00 in0.0 mm 0.00 in0.0 mm
01:30 PM 47.5°F8.6°C 2.2°F-16.6°C 15% 9.5 mph WNW15.3 kmh WNW 15.2 mph24.5 kmh 29.88 in1011.9 mb 0.00 in0.0 mm 0.00 in0.0 mm 0.00 in0.0 mm
01:45 PM 51.4°F10.8°C -3.3°F-19.6°C 10% 8.9 mph SSW14.3 kmh SSW 16.8 mph27.0 kmh 29.87 in1011.5 mb 0.00 in0.0 mm 0.00 in0.0 mm 0.00 in0.0 mm
02:00 PM 50.4°F10.2°C -4.1°F-20.1°C 10% 9.6 mph SW15.4 kmh SW 19.0 mph30.6 kmh 29.88 in1011.9 mb 0.00 in0.0 mm 0.00 in0.0 mm 0.00 in0.0 mm
02:15 PM 48.2°F9.0°C 1.3°F-17.1°C 14% 12.1 mph SW19.5 kmh SW 19.0 mph30.6 kmh 29.88 in1011.9 mb 0.00 in0.0 mm 0.00 in0.0 mm 0.00 in0.0 mm
02:30 PM 51.8°F11.0°C -3.0°F-19.4°C 10% 8.6 mph SW13.8 kmh SW 15.9 mph25.6 kmh 29.87 in1011.5 mb 0.00 in0.0 mm 0.00 in0.0 mm 0.00 in0.0 mm
02:45 PM 49.8°F9.9°C -2.5°F-19.2°C 11% 9.3 mph S15.0 kmh S 13.6 mph21.9 kmh 29.87 in1011.5 mb 0.00 in0.0 mm 0.00 in0.0 mm 0.00 in0.0 mm
03:00 PM 51.8°F11.0°C -3.0°F-19.4°C 10% 12.4 mph S20.0 kmh S 15.9 mph25.6 kmh 29.87 in1011.5 mb 0.00 in0.0 mm 0.00 in0.0 mm 0.00 in0.0 mm
03:15 PM 51.4°F10.8°C -3.3°F-19.6°C 10% 10.3 mph SW16.6 kmh SW 13.6 mph21.9 kmh 29.87 in1011.5 mb 0.00 in0.0 mm 0.00 in0.0 mm 0.00 in0.0 mm
03:30 PM 51.1°F10.6°C -3.6°F-19.8°C 10% 9.2 mph S14.8 kmh S 12.1 mph19.5 kmh 29.86 in1011.2 mb 0.00 in0.0 mm 0.00 in0.0 mm 0.00 in0.0 mm
03:45 PM 51.1°F10.6°C -3.6°F-19.8°C 10% 8.3 mph SSW13.4 kmh SSW 13.0 mph20.9 kmh 29.86 in1011.2 mb 0.00 in0.0 mm 0.00 in0.0 mm 0.00 in0.0 mm
04:00 PM 47.5°F8.6°C 4.9°F-15.1°C 17% 8.7 mph S14.0 kmh S 15.9 mph25.6 kmh 29.86 in1011.2 mb 0.00 in0.0 mm 0.00 in0.0 mm 0.00 in0.0 mm
04:15 PM 46.8°F8.2°C 8.9°F-12.8°C 21% 6.6 mph S10.6 kmh S 9.2 mph14.8 kmh 29.86 in1011.2 mb 0.00 in0.0 mm 0.00 in0.0 mm 0.00 in0.0 mm
04:30 PM 45.0°F7.2°C 13.8°F-10.1°C 28% 7.5 mph S12.1 kmh S 9.2 mph14.8 kmh 29.86 in1011.2 mb 0.00 in0.0 mm 0.00 in0.0 mm 0.00 in0.0 mm
04:45 PM 44.1°F6.7°C 14.6°F-9.7°C 30% 8.8 mph S14.2 kmh S 12.1 mph19.5 kmh 29.86 in1011.2 mb 0.00 in0.0 mm 0.00 in0.0 mm 0.00 in0.0 mm
05:00 PM 43.5°F6.4°C 16.3°F-8.7°C 33% 6.8 mph S10.9 kmh S 8.3 mph13.4 kmh 29.87 in1011.5 mb 0.00 in0.0 mm 0.00 in0.0 mm 0.00 in0.0 mm
05:15 PM 42.8°F6.0°C 16.4°F-8.7°C 34% 5.9 mph SSE9.5 kmh SSE 8.3 mph13.4 kmh 29.87 in1011.5 mb 0.00 in0.0 mm 0.00 in0.0 mm 0.00 in0.0 mm
05:30 PM 42.1°F5.6°C 16.4°F-8.7°C 35% 6.5 mph S10.5 kmh S 8.3 mph13.4 kmh 29.87 in1011.5 mb 0.00 in0.0 mm 0.00 in0.0 mm 0.00 in0.0 mm
05:45 PM 41.0°F5.0°C 17.4°F-8.1°C 38% 5.6 mph S9.0 kmh S 7.6 mph12.2 kmh 29.87 in1011.5 mb 0.00 in0.0 mm 0.00 in0.0 mm 0.00 in0.0 mm
06:00 PM 39.6°F4.2°C 17.8°F-7.9°C 41% 6.3 mph S10.1 kmh S 8.3 mph13.4 kmh 29.86 in1011.2 mb 0.00 in0.0 mm 0.00 in0.0 mm 0.00 in0.0 mm
06:15 PM 38.8°F3.8°C 18.3°F-7.6°C 43% 4.7 mph SSW7.6 kmh SSW 7.6 mph12.2 kmh 29.87 in1011.5 mb 0.00 in0.0 mm 0.00 in0.0 mm 0.00 in0.0 mm
06:30 PM 38.5°F3.6°C 18.0°F-7.8°C 43% 4.4 mph SSW7.1 kmh SSW 6.0 mph9.7 kmh 29.87 in1011.5 mb 0.00 in0.0 mm 0.00 in0.0 mm 0.00 in0.0 mm
06:45 PM 38.1°F3.4°C 17.6°F-8.0°C 43% 4.8 mph S7.7 kmh S 6.0 mph9.7 kmh 29.87 in1011.5 mb 0.00 in0.0 mm 0.00 in0.0 mm 0.00 in0.0 mm
07:00 PM 37.9°F3.3°C 17.5°F-8.1°C 43% 2.9 mph S4.7 kmh S 4.5 mph7.2 kmh 29.86 in1011.2 mb 0.00 in0.0 mm 0.00 in0.0 mm 0.00 in0.0 mm
07:15 PM 37.2°F2.9°C 17.9°F-7.8°C 45% 2.1 mph SSE3.4 kmh SSE 3.1 mph5.0 kmh 29.86 in1011.2 mb 0.00 in0.0 mm 0.00 in0.0 mm 0.00 in0.0 mm
07:30 PM 37.0°F2.8°C 17.7°F-7.9°C 45% 2.1 mph SE3.4 kmh SE 3.1 mph5.0 kmh 29.86 in1011.2 mb 0.00 in0.0 mm 0.00 in0.0 mm 0.00 in0.0 mm
07:45 PM 36.7°F2.6°C 17.9°F-7.8°C 46% 1.9 mph S3.1 kmh S 3.1 mph5.0 kmh 29.86 in1011.2 mb 0.00 in0.0 mm 0.00 in0.0 mm 0.00 in0.0 mm
08:00 PM 36.7°F2.6°C 18.4°F-7.6°C 47% 3.4 mph SSE5.5 kmh SSE 4.5 mph7.2 kmh 29.86 in1011.2 mb 0.00 in0.0 mm 0.00 in0.0 mm 0.00 in0.0 mm
08:15 PM 36.7°F2.6°C 17.4°F-8.1°C 45% 2.9 mph S4.7 kmh S 4.5 mph7.2 kmh 29.86 in1011.2 mb 0.00 in0.0 mm 0.00 in0.0 mm 0.00 in0.0 mm
08:30 PM 36.9°F2.7°C 17.5°F-8.1°C 45% 3.8 mph S6.1 kmh S 4.5 mph7.2 kmh 29.86 in1011.2 mb 0.00 in0.0 mm 0.00 in0.0 mm 0.00 in0.0 mm
08:45 PM 36.7°F2.6°C 17.4°F-8.1°C 45% 2.2 mph S3.5 kmh S 3.8 mph6.1 kmh 29.86 in1011.2 mb 0.00 in0.0 mm 0.00 in0.0 mm 0.00 in0.0 mm
09:00 PM 36.7°F2.6°C 17.4°F-8.1°C 45% 2.5 mph SSE4.0 kmh SSE 3.1 mph5.0 kmh 29.86 in1011.2 mb 0.00 in0.0 mm 0.00 in0.0 mm 0.00 in0.0 mm
09:15 PM 36.9°F2.7°C 17.5°F-8.1°C 45% 2.6 mph S4.2 kmh S 4.5 mph7.2 kmh 29.86 in1011.2 mb 0.00 in0.0 mm 0.00 in0.0 mm 0.00 in0.0 mm
09:30 PM 36.7°F2.6°C 17.4°F-8.1°C 45% 3.4 mph S5.5 kmh S 6.0 mph9.7 kmh 29.86 in1011.2 mb 0.00 in0.0 mm 0.00 in0.0 mm 0.00 in0.0 mm
09:45 PM 37.0°F2.8°C 16.1°F-8.8°C 42% 3.2 mph SSW5.1 kmh SSW 5.4 mph8.7 kmh 29.86 in1011.2 mb 0.00 in0.0 mm 0.00 in0.0 mm 0.00 in0.0 mm
10:00 PM 37.2°F2.9°C 16.3°F-8.7°C 42% 4.7 mph SSW7.6 kmh SSW 6.0 mph9.7 kmh 29.86 in1011.2 mb 0.00 in0.0 mm 0.00 in0.0 mm 0.00 in0.0 mm
10:15 PM 37.6°F3.1°C 16.6°F-8.6°C 42% 5.7 mph S9.2 kmh S 8.3 mph13.4 kmh 29.86 in1011.2 mb 0.00 in0.0 mm 0.00 in0.0 mm 0.00 in0.0 mm
10:30 PM 37.6°F3.1°C 18.2°F-7.7°C 45% 5.7 mph S9.2 kmh S 7.6 mph12.2 kmh 29.86 in1011.2 mb 0.00 in0.0 mm 0.00 in0.0 mm 0.00 in0.0 mm
10:45 PM 37.0°F2.8°C 18.7°F-7.4°C 47% 3.0 mph S4.8 kmh S 6.0 mph9.7 kmh 29.86 in1011.2 mb 0.00 in0.0 mm 0.00 in0.0 mm 0.00 in0.0 mm
11:00 PM 36.7°F2.6°C 18.4°F-7.6°C 47% 0.7 mph E1.1 kmh E 1.6 mph2.6 kmh 29.86 in1011.2 mb 0.00 in0.0 mm 0.00 in0.0 mm 0.00 in0.0 mm
11:15 PM 36.7°F2.6°C 18.9°F-7.3°C 48% Calm Calm -- 29.86 in1011.2 mb 0.00 in0.0 mm 0.00 in0.0 mm 0.00 in0.0 mm
11:30 PM 36.1°F2.3°C 19.8°F-6.8°C 51% 3.3 mph S5.3 kmh S 4.5 mph7.2 kmh 29.87 in1011.5 mb 0.00 in0.0 mm 0.00 in0.0 mm 0.00 in0.0 mm
11:45 PM 35.8°F2.1°C 20.3°F-6.5°C 53% 4.8 mph SSW7.7 kmh SSW 6.9 mph11.1 kmh 29.88 in1011.9 mb 0.00 in0.0 mm 0.00 in0.0 mm 0.00 in0.0 mm